Topsail Beach, NC

9:31 PM EST on December 05, 2016 (GMT -0500)
Topsail Beach Fire Dept | | Change Station

Elev 12 ft 34.37 °N, 77.63 °W | Updated 7 seconds ago

Rain
Rain Mist
53.8 °F
Feels Like 53.8 °F
N
12.0
Wind Variable Wind from ENE
Gusts 15.0 mph

Today
High -- | Low -- °F
--% Chance of Precip.
Yesterday
High -- | Low -- °F
Precip. -- in
Pressure 30.05 in
Visibility 5.0 miles
Clouds Few 2300 ft
Mostly Cloudy 6000 ft
Overcast 9000 ft
Dew Point 51 °F
Humidity 90%
Rainfall 0.76 in
Snow Depth Not available.
7:02 AM 5:00 PM
Waxing Crescent, 37% visible
METAR KILM 060153Z AUTO 03008KT 5SM RA BR FEW023 BKN060 OVC090 12/11 A3005 RMK AO2 RAB41 SLP175 P0003 T01170106
Pressure 30.05 in
Visibility 5.0 miles
Clouds Few 2300 ft
Mostly Cloudy 6000 ft
Overcast 9000 ft
Dew Point 51 °F
Humidity 90%
Rainfall 0.76 in
Snow Depth Not available.
7:02 AM 5:00 PM
Waxing Crescent, 37% visible
METAR KILM 060153Z AUTO 03008KT 5SM RA BR FEW023 BKN060 OVC090 12/11 A3005 RMK AO2 RAB41 SLP175 P0003 T01170106

10-Day Weather Forecast

Almanac

Astronomy

Dec. 05, 2016 Rise Set
Actual Time
Civil Twilight
Nautical Twilight
Astronomical Twilight
Moon
Length of Visible Light
Length of Day
Tomorrow will be .
, % of the Moon is Illuminated

Today's Extremes

State Highs State Lows

Community

WunderPhotos

Upload Photos

1,955,904 photos uploaded!

WunderBlog® & News

Nearby

Air Quality

  Air Quality AQ Index Pollutant
Not available.

Snow Depth

Station Depth Elevation

Earthquake Activity

City Distance Mag. Time & Date
Minimum magnitude displayed is 2.5.

Coastal Water Temperatures

Place Temperature

Stations

Nearby Weather Stations

Station Location Temp. Windchill Dew Point Humidity Wind Precip. Elev Updated Type
                   

Watches & Warnings

There are currently no watches in effect.